logo
Search for airport 
image banner adimage banner adimage banner ad
image banner ad

HKGK - Ngurunit (Unesco)

Located in , Kenya

ICAO - , IATA -

Data provided by Airmate  

General information

Coordinates: N1°54'50" E37°18'3"
Elevation is 2151 feet MSL.
 
View others Airports in Eastern Province

Operational data

Special qualification required
Current time UTC:
Current local time:
Weather at : - ( 0 km )
METAR: TXKF 230355Z 19019KT 9999 FEW008 BKN300 21/21 Q1015
View NOTAMs / SUP AIP / TFR affecting this airport [VIEW]
Communications frequencies: [VIEW]

Runways:

RWY identifierQFULength (ft)Width (ft)SurfaceLDA (ft)
1800UNK
3600UNK

Airport contact information

Address: Kenya

Satellite view of HKGK